createdAt,value
2023-11-24T00:00:12.781Z,100932.75
2023-11-24T00:03:01.261Z,100935.53
2023-11-24T00:05:29.805Z,100933.46
2023-11-24T00:07:58.492Z,100930.86
2023-11-24T00:10:30.002Z,100926.70
2023-11-24T00:12:58.571Z,100927.55
2023-11-24T00:15:28.792Z,100925.82
2023-11-24T00:17:58.279Z,100923.06
2023-11-24T00:20:27.344Z,100928.59
2023-11-24T00:22:57.154Z,100932.04
2023-11-24T00:25:25.549Z,100930.98
2023-11-24T00:27:56.105Z,100924.42
2023-11-24T00:30:24.575Z,100926.19
2023-11-24T00:32:53.025Z,100924.31
2023-11-24T00:35:22.509Z,100918.11
2023-11-24T00:37:51.024Z,100910.84
2023-11-24T00:40:19.823Z,100902.02
2023-11-24T00:42:48.101Z,100893.02
2023-11-24T00:45:17.896Z,100888.02
2023-11-24T00:47:46.488Z,100884.05
2023-11-24T00:50:15.573Z,100878.88
2023-11-24T00:52:44.300Z,100872.81
2023-11-24T00:55:12.661Z,100864.34
2023-11-24T00:57:40.925Z,100852.55
2023-11-24T01:00:10.242Z,100848.58
2023-11-24T01:02:40.070Z,100840.61
2023-11-24T01:05:10.960Z,100836.65
2023-11-24T01:07:39.487Z,100836.48
2023-11-24T01:10:10.497Z,100829.73
2023-11-24T01:12:40.151Z,100823.84
2023-11-24T01:15:10.225Z,100821.25
2023-11-24T01:17:38.469Z,100811.91
2023-11-24T01:20:11.240Z,100803.23
2023-11-24T01:22:40.111Z,100795.98
2023-11-24T01:25:09.447Z,100790.27
2023-11-24T01:27:37.803Z,100784.73
2023-11-24T01:30:09.059Z,100777.63
2023-11-24T01:32:37.921Z,100774.86
2023-11-24T01:35:07.081Z,100768.45
2023-11-24T01:37:35.348Z,100761.01
2023-11-24T01:40:07.332Z,100756.85
2023-11-24T01:42:38.836Z,100750.46
2023-11-24T01:45:11.531Z,100752.01
2023-11-24T01:47:40.432Z,100750.12
2023-11-24T01:50:11.396Z,100744.05
2023-11-24T01:52:41.090Z,100734.36
2023-11-24T01:55:14.417Z,100723.11
2023-11-24T01:57:43.879Z,100718.61
2023-11-24T02:00:14.904Z,100709.77
2023-11-24T02:02:44.127Z,100700.78
2023-11-24T02:05:13.557Z,100699.05
2023-11-24T02:07:45.701Z,100693.34
2023-11-24T02:10:16.153Z,100689.02
2023-11-24T02:12:44.547Z,100688.66
2023-11-24T02:15:13.813Z,100688.33
2023-11-24T02:17:42.432Z,100690.92
2023-11-24T02:20:16.674Z,100694.90
2023-11-24T02:22:45.386Z,100692.65
2023-11-24T02:25:14.930Z,100685.03
2023-11-24T02:27:43.372Z,100675.17
2023-11-24T02:30:13.068Z,100666.86
2023-11-24T02:32:41.520Z,100657.35
2023-11-24T02:35:11.096Z,100656.48
2023-11-24T02:37:40.169Z,100648.00
2023-11-24T02:40:09.911Z,100642.30
2023-11-24T02:42:38.184Z,100636.58
2023-11-24T02:45:07.667Z,100625.16
2023-11-24T02:47:36.543Z,100622.73
2023-11-24T02:50:05.857Z,100610.97
2023-11-24T02:52:34.334Z,100599.73
2023-11-24T02:55:03.402Z,100595.05
2023-11-24T02:57:32.132Z,100599.73
2023-11-24T03:00:00.705Z,100595.58
2023-11-24T03:02:29.738Z,100588.64
2023-11-24T03:04:58.422Z,100584.86
2023-11-24T03:07:28.012Z,100587.11
2023-11-24T03:09:56.497Z,100576.89
2023-11-24T03:12:24.883Z,100572.03
2023-11-24T03:14:55.303Z,100568.05
2023-11-24T03:17:23.970Z,100566.16
2023-11-24T03:19:52.342Z,100560.98
2023-11-24T03:22:21.644Z,100563.23
2023-11-24T03:24:50.180Z,100566.71
2023-11-24T03:27:18.395Z,100562.39
2023-11-24T03:29:46.727Z,100556.50
2023-11-24T03:32:15.874Z,100557.71
2023-11-24T03:34:44.186Z,100555.12
2023-11-24T03:37:12.836Z,100554.79
2023-11-24T03:39:41.327Z,100551.84
2023-11-24T03:42:09.808Z,100552.02
2023-11-24T03:44:39.818Z,100540.59
2023-11-24T03:47:08.192Z,100541.62
2023-11-24T03:49:37.189Z,100544.39
2023-11-24T03:52:06.116Z,100545.27
2023-11-24T03:54:35.196Z,100541.47
2023-11-24T03:57:04.099Z,100532.65
2023-11-24T03:59:32.346Z,100534.38
2023-11-24T04:02:00.624Z,100531.27
2023-11-24T04:04:30.320Z,100531.80
2023-11-24T04:06:59.343Z,100533.70
2023-11-24T04:09:27.843Z,100535.60
2023-11-24T04:11:56.388Z,100536.98
2023-11-24T04:14:24.786Z,100536.98
2023-11-24T04:16:53.093Z,100542.34
2023-11-24T04:19:22.079Z,100542.01
2023-11-24T04:21:50.438Z,100544.59
2023-11-24T04:24:19.409Z,100549.26
2023-11-24T04:26:47.689Z,100551.68
2023-11-24T04:29:17.220Z,100550.84
2023-11-24T04:31:45.878Z,100543.06
2023-11-24T04:34:14.346Z,100540.12
2023-11-24T04:36:42.558Z,100535.45
2023-11-24T04:39:11.021Z,100526.80
2023-11-24T04:41:39.294Z,100522.66
2023-11-24T04:44:07.570Z,100527.48
2023-11-24T04:46:35.917Z,100530.60
2023-11-24T04:49:05.246Z,100528.52
2023-11-24T04:51:33.658Z,100529.54
2023-11-24T04:54:05.002Z,100531.95
2023-11-24T04:56:33.351Z,100532.64
2023-11-24T04:59:02.139Z,100532.11
2023-11-24T05:01:30.894Z,100528.48
2023-11-24T05:04:01.040Z,100528.49
2023-11-24T05:06:29.575Z,100529.87
2023-11-24T05:08:58.023Z,100528.66
2023-11-24T05:11:27.520Z,100530.21
2023-11-24T05:13:56.093Z,100527.11
2023-11-24T05:16:24.534Z,100520.71
2023-11-24T05:18:53.900Z,100520.20
2023-11-24T05:21:22.265Z,100513.29
2023-11-24T05:23:50.813Z,100516.73
2023-11-24T05:26:19.122Z,100508.44
2023-11-24T05:28:47.404Z,100504.30
2023-11-24T05:31:15.969Z,100506.58
2023-11-24T05:33:44.524Z,100507.10
2023-11-24T05:36:12.843Z,100503.29
2023-11-24T05:38:41.118Z,100502.09
2023-11-24T05:41:09.914Z,100501.56
2023-11-24T05:43:40.121Z,100494.48
2023-11-24T05:46:08.673Z,100493.44
2023-11-24T05:48:37.427Z,100496.03
2023-11-24T05:51:06.705Z,100498.29
2023-11-24T05:53:36.301Z,100497.40
2023-11-24T05:56:09.540Z,100500.70
2023-11-24T05:58:37.881Z,100503.63
2023-11-24T06:01:06.290Z,100507.61
2023-11-24T06:03:34.696Z,100506.39
2023-11-24T06:06:03.238Z,100499.65
2023-11-24T06:08:32.717Z,100491.00
2023-11-24T06:11:01.116Z,100486.33
2023-11-24T06:13:29.582Z,100487.70
2023-11-24T06:15:58.339Z,100484.58
2023-11-24T06:18:29.870Z,100475.70
2023-11-24T06:20:58.198Z,100476.81
2023-11-24T06:23:26.483Z,100472.94
2023-11-24T06:25:54.858Z,100464.65
2023-11-24T06:28:23.334Z,100460.46
2023-11-24T06:30:51.714Z,100454.16
2023-11-24T06:33:20.221Z,100447.42
2023-11-24T06:35:48.492Z,100449.02
2023-11-24T06:38:16.817Z,100440.16
2023-11-24T06:40:45.430Z,100436.42
2023-11-24T06:43:38.580Z,100431.84
2023-11-24T06:46:07.104Z,100427.41
2023-11-24T06:48:39.525Z,100424.99
2023-11-24T06:51:08.760Z,100420.29
2023-11-24T06:53:37.239Z,100414.21
2023-11-24T06:56:06.014Z,100414.80
2023-11-24T07:09:28.834Z,100415.76
2023-11-24T07:11:57.113Z,100415.23
2023-11-24T07:14:25.395Z,100419.44
2023-11-24T07:16:54.103Z,100412.35
2023-11-24T07:19:23.352Z,100403.70
2023-11-24T07:21:51.837Z,100401.39
2023-11-24T07:24:20.240Z,100393.84
2023-11-24T07:26:48.917Z,100393.80
2023-11-24T07:29:17.603Z,100396.25
2023-11-24T07:31:46.693Z,100401.36
2023-11-24T07:34:15.147Z,100397.84
2023-11-24T07:36:44.117Z,100393.98
2023-11-24T07:39:12.638Z,100378.46
2023-11-24T07:41:41.240Z,100363.58
2023-11-24T07:44:10.274Z,100346.64
2023-11-24T07:47:07.076Z,100331.98
2023-11-24T07:49:35.638Z,100316.80
2023-11-24T07:52:06.356Z,100311.39
2023-11-24T07:54:34.907Z,100310.47
2023-11-24T07:57:03.565Z,100323.12
2023-11-24T07:59:32.140Z,100338.48
2023-11-24T08:02:00.482Z,100347.04
2023-11-24T08:04:29.588Z,100333.60
2023-11-24T08:06:58.187Z,100336.90
2023-11-24T08:09:27.026Z,100342.09
2023-11-24T08:11:56.601Z,100341.69
2023-11-24T08:14:25.512Z,100319.14
2023-11-24T08:16:54.330Z,100303.42
2023-11-24T08:19:27.129Z,100295.88
2023-11-24T08:21:55.569Z,100294.11
2023-11-24T08:24:23.918Z,100292.69
2023-11-24T08:26:52.788Z,100295.95
2023-11-24T08:29:21.598Z,100286.77
2023-11-24T08:31:51.310Z,100287.40
2023-11-24T08:34:20.690Z,100292.02
2023-11-24T08:36:49.092Z,100291.33
2023-11-24T08:39:19.312Z,100281.63
2023-11-24T08:41:50.865Z,100276.77
2023-11-24T08:44:27.851Z,100273.20
2023-11-24T08:46:56.471Z,100267.44
2023-11-24T08:49:24.634Z,100261.91
2023-11-24T08:51:53.345Z,100253.91
2023-11-24T08:54:23.855Z,100248.63
2023-11-24T08:56:52.213Z,100249.07
2023-11-24T08:59:20.794Z,100249.75
2023-11-24T09:01:50.931Z,100245.93
2023-11-24T09:04:20.795Z,100244.52
2023-11-24T09:06:49.734Z,100244.08
2023-11-24T09:09:18.285Z,100243.80
2023-11-24T09:11:48.244Z,100241.31
2023-11-24T09:14:16.712Z,100238.95
2023-11-24T09:16:45.173Z,100234.64
2023-11-24T09:19:13.831Z,100233.43
2023-11-24T09:21:42.462Z,100229.30
2023-11-24T09:24:13.290Z,100216.95
2023-11-24T09:26:44.569Z,100212.39
2023-11-24T09:29:13.338Z,100210.10
2023-11-24T09:31:43.430Z,100208.23
2023-11-24T09:34:11.967Z,100208.58
2023-11-24T09:36:43.781Z,100201.84
2023-11-24T09:39:12.655Z,100193.13
2023-11-24T09:41:41.696Z,100189.98
2023-11-24T09:44:11.688Z,100178.23
2023-11-24T09:46:49.262Z,100173.99
2023-11-24T09:49:22.145Z,100173.67
2023-11-24T09:51:50.343Z,100169.04
2023-11-24T09:54:19.484Z,100163.16
2023-11-24T09:56:47.968Z,100157.16
2023-11-24T09:59:16.892Z,100145.69
2023-11-24T10:01:48.956Z,100142.41
2023-11-24T10:04:17.241Z,100138.45
2023-11-24T10:06:46.733Z,100135.19
2023-11-24T10:09:23.718Z,100142.23
2023-11-24T10:11:52.294Z,100140.36
2023-11-24T10:14:23.278Z,100138.34
2023-11-24T10:16:51.759Z,100145.67
2023-11-24T10:19:23.459Z,100144.67
2023-11-24T10:21:56.395Z,100143.91
2023-11-24T10:24:26.766Z,100142.16
2023-11-24T10:26:55.370Z,100140.48
2023-11-24T10:29:29.585Z,100129.02
2023-11-24T10:31:58.169Z,100125.00
2023-11-24T10:34:27.657Z,100123.23
2023-11-24T10:36:56.420Z,100119.55
2023-11-24T10:39:26.909Z,100112.22
2023-11-24T10:41:56.188Z,100100.64
2023-11-24T10:44:26.412Z,100088.73
2023-11-24T10:47:01.848Z,100076.52
2023-11-24T10:49:41.531Z,100054.88
2023-11-24T10:52:33.946Z,100044.48
2023-11-24T10:55:10.148Z,100037.62
2023-11-24T10:57:40.865Z,100033.96
2023-11-24T11:00:10.181Z,100040.29
2023-11-24T11:02:41.840Z,100045.81
2023-11-24T11:05:28.098Z,100050.91
2023-11-24T11:08:29.507Z,100066.48
2023-11-24T11:11:14.032Z,100061.78
2023-11-24T11:13:44.620Z,100053.65
2023-11-24T11:16:16.754Z,100055.98
2023-11-24T11:18:45.353Z,100054.84
2023-11-24T11:21:33.036Z,100053.66
2023-11-24T11:24:11.842Z,100054.29
2023-11-24T11:26:50.292Z,100050.27
2023-11-24T11:29:25.732Z,100050.45
2023-11-24T11:31:57.230Z,100052.46
2023-11-24T11:34:31.583Z,100052.55
2023-11-24T11:37:21.404Z,100053.21
2023-11-24T11:39:59.459Z,100050.03
2023-11-24T11:42:51.540Z,100053.20
2023-11-24T11:45:26.184Z,100060.14
2023-11-24T11:47:54.633Z,100071.69
2023-11-24T11:50:25.938Z,100082.33
2023-11-24T11:52:59.231Z,100077.60
2023-11-24T11:55:30.509Z,100073.55
2023-11-24T11:58:01.916Z,100072.34
2023-11-24T12:00:31.569Z,100073.77
2023-11-24T12:03:00.424Z,100060.52
2023-11-24T12:05:29.025Z,100054.41
2023-11-24T12:07:59.904Z,100053.40
2023-11-24T12:10:31.461Z,100050.97
2023-11-24T12:13:06.061Z,100054.17
2023-11-24T12:15:35.908Z,100059.17
2023-11-24T12:18:06.860Z,100054.70
2023-11-24T12:20:38.024Z,100047.40
2023-11-24T12:23:09.280Z,100048.86
2023-11-24T12:25:40.912Z,100045.42
2023-11-24T12:28:11.649Z,100041.97
2023-11-24T12:30:44.486Z,100036.50
2023-11-24T12:33:13.184Z,100038.84
2023-11-24T12:35:56.362Z,100034.37
2023-11-24T12:38:25.258Z,100027.85
2023-11-24T12:40:53.849Z,100030.40
2023-11-24T12:43:25.528Z,100035.21
2023-11-24T12:45:54.119Z,100030.06
2023-11-24T12:48:26.766Z,100029.05
2023-11-24T12:50:59.790Z,100026.75
2023-11-24T12:53:30.174Z,100027.70
2023-11-24T12:55:59.091Z,100027.90
2023-11-24T12:58:27.706Z,100028.39
2023-11-24T13:00:58.549Z,100027.55
2023-11-24T13:03:27.990Z,100028.02
2023-11-24T13:05:56.479Z,100033.35
2023-11-24T13:08:24.957Z,100036.87
2023-11-24T13:10:55.067Z,100031.11
2023-11-24T13:13:23.549Z,100027.70
2023-11-24T13:15:53.663Z,100027.14
2023-11-24T13:18:22.660Z,100026.81
2023-11-24T13:20:51.559Z,100030.25
2023-11-24T13:23:20.144Z,100025.55
2023-11-24T13:25:48.723Z,100023.95
2023-11-24T13:28:17.256Z,100025.77
2023-11-24T13:30:46.156Z,100033.77
2023-11-24T13:33:16.496Z,100035.56
2023-11-24T13:35:45.930Z,100035.11
2023-11-24T13:38:15.948Z,100029.98
2023-11-24T13:40:47.092Z,100025.02
2023-11-24T13:43:15.687Z,100021.83
2023-11-24T13:45:44.158Z,100014.23
2023-11-24T13:48:13.982Z,100009.22
2023-11-24T13:50:42.445Z,100006.55
2023-11-24T13:53:13.372Z,100007.58
2023-11-24T13:55:45.132Z,100002.33
2023-11-24T13:58:14.484Z,99995.63
2023-11-24T14:00:43.281Z,99989.93
2023-11-24T14:03:11.756Z,99990.90
2023-11-24T14:05:41.221Z,99996.62
2023-11-24T14:08:10.845Z,99999.45
2023-11-24T14:10:39.314Z,99998.84
2023-11-24T14:13:07.688Z,100005.71
2023-11-24T14:15:36.170Z,100007.83
2023-11-24T14:18:08.242Z,100007.98
2023-11-24T14:20:38.048Z,100009.79
2023-11-24T14:23:06.221Z,100008.34
2023-11-24T14:25:35.522Z,100006.27
2023-11-24T14:28:05.254Z,100004.15
2023-11-24T14:30:35.862Z,100010.53
2023-11-24T14:33:04.670Z,100015.99
2023-11-24T14:35:33.339Z,100013.02
2023-11-24T14:38:02.858Z,100012.81
2023-11-24T14:40:31.180Z,100006.89
2023-11-24T14:43:00.037Z,100005.73
2023-11-24T14:45:28.283Z,99997.75
2023-11-24T14:47:56.577Z,99993.96
2023-11-24T14:50:27.910Z,100000.55
2023-11-24T14:52:56.501Z,100006.40
2023-11-24T14:55:25.015Z,100015.41
2023-11-24T14:57:53.481Z,100018.23
2023-11-24T15:00:32.256Z,100020.89
2023-11-24T15:03:16.022Z,100019.73
2023-11-24T15:05:53.643Z,100009.88
2023-11-24T15:08:22.105Z,100009.98
2023-11-24T15:10:50.884Z,100010.19
2023-11-24T15:13:26.092Z,100015.55
2023-11-24T15:15:54.518Z,100026.10
2023-11-24T15:18:22.884Z,100029.00
2023-11-24T15:20:54.995Z,100034.03
2023-11-24T15:23:26.823Z,100035.59
2023-11-24T15:25:55.874Z,100032.45
2023-11-24T15:28:25.229Z,100027.81
2023-11-24T15:30:55.096Z,100025.79
2023-11-24T15:33:24.185Z,100020.45
2023-11-24T15:35:53.572Z,100019.77
2023-11-24T15:38:23.339Z,100020.70
2023-11-24T15:40:52.955Z,100019.48
2023-11-24T15:43:22.839Z,100015.00
2023-11-24T15:45:56.847Z,100021.41
2023-11-24T15:48:27.296Z,100024.86
2023-11-24T15:50:59.357Z,100021.25
2023-11-24T15:53:28.673Z,100016.58
2023-11-24T15:55:59.384Z,100009.31
2023-11-24T15:58:28.499Z,100004.66
2023-11-24T16:00:58.494Z,100007.61
2023-11-24T16:03:27.348Z,100013.74
2023-11-24T16:06:01.317Z,100016.41
2023-11-24T16:08:34.577Z,100015.96
2023-11-24T16:11:11.394Z,100015.97
2023-11-24T16:13:45.971Z,100006.10
2023-11-24T16:16:15.705Z,99998.30
2023-11-24T16:18:45.903Z,100000.77
2023-11-24T16:21:14.784Z,99994.80
2023-11-24T16:23:43.407Z,99994.02
2023-11-24T16:26:11.892Z,99992.85
2023-11-24T16:28:41.499Z,99990.14
2023-11-24T16:31:10.313Z,99987.42
2023-11-24T16:33:40.192Z,99986.80
2023-11-24T16:36:11.078Z,99989.92
2023-11-24T16:38:43.113Z,99995.83
2023-11-24T16:41:16.034Z,100002.29
2023-11-24T16:43:44.389Z,99999.41
2023-11-24T16:46:12.881Z,99985.81
2023-11-24T16:48:41.885Z,99978.50
2023-11-24T16:51:10.726Z,99988.16
2023-11-24T16:53:42.275Z,99985.25
2023-11-24T16:56:10.960Z,99980.21
2023-11-24T16:58:39.342Z,99983.42
2023-11-24T17:01:07.955Z,99977.79
2023-11-24T17:03:38.899Z,99980.30
2023-11-24T17:06:09.003Z,99983.77
2023-11-24T17:08:40.746Z,99987.27
2023-11-24T17:11:12.365Z,99989.58
2023-11-24T17:13:40.996Z,99983.91
2023-11-24T17:16:11.398Z,99985.50
2023-11-24T17:18:40.207Z,99986.37
2023-11-24T17:21:09.684Z,99982.68
2023-11-24T17:23:42.392Z,99978.59
2023-11-24T17:26:11.549Z,99978.69
2023-11-24T17:28:40.295Z,99985.95
2023-11-24T17:31:09.600Z,99977.80
2023-11-24T17:33:39.303Z,99968.77
2023-11-24T17:36:09.594Z,99960.95
2023-11-24T17:38:38.191Z,99954.76
2023-11-24T17:41:07.424Z,99950.02
2023-11-24T17:43:35.784Z,99951.23
2023-11-24T17:46:07.741Z,99950.98
2023-11-24T17:48:37.136Z,99954.86
2023-11-24T17:51:06.773Z,99956.48
2023-11-24T17:53:37.035Z,99955.99
2023-11-24T17:56:06.160Z,99954.55
2023-11-24T17:58:35.093Z,99951.20
2023-11-24T18:01:03.596Z,99955.52
2023-11-24T18:03:34.088Z,99957.31
2023-11-24T18:06:03.599Z,99951.92
2023-11-24T18:08:35.385Z,99950.56
2023-11-24T18:11:06.277Z,99953.39
2023-11-24T18:13:34.813Z,99946.00
2023-11-24T18:16:04.685Z,99943.36
2023-11-24T18:18:33.656Z,99941.80
2023-11-24T18:21:02.456Z,99947.06
2023-11-24T18:23:32.516Z,99948.27
2023-11-24T18:26:01.348Z,99950.70
2023-11-24T18:28:30.118Z,99949.52
2023-11-24T18:30:59.186Z,99946.11
2023-11-24T18:33:27.924Z,99940.67
2023-11-24T18:35:56.726Z,99943.98
2023-11-24T18:38:26.497Z,99944.57
2023-11-24T18:40:58.823Z,99948.45
2023-11-24T18:43:36.733Z,99949.11
2023-11-24T18:46:09.101Z,99939.25
2023-11-24T18:48:38.083Z,99936.55
2023-11-24T18:51:07.593Z,99939.46
2023-11-24T18:53:35.936Z,99941.41
2023-11-24T18:56:05.357Z,99934.85
2023-11-24T18:58:34.151Z,99921.61
2023-11-24T19:01:02.572Z,99916.25
2023-11-24T19:03:32.660Z,99921.45
2023-11-24T19:06:01.114Z,99914.83
2023-11-24T19:08:29.903Z,99913.46
2023-11-24T19:10:59.312Z,99902.52
2023-11-24T19:13:27.902Z,99901.44
2023-11-24T19:15:57.002Z,99898.71
2023-11-24T19:18:25.566Z,99895.92
2023-11-24T19:20:57.139Z,99895.27
2023-11-24T19:23:26.118Z,99898.33
2023-11-24T19:25:54.392Z,99899.53
2023-11-24T19:28:22.817Z,99903.55
2023-11-24T19:30:53.723Z,99910.33
2023-11-24T19:33:22.499Z,99915.20
2023-11-24T19:35:50.773Z,99928.44
2023-11-24T19:38:19.262Z,99924.84
2023-11-24T19:40:47.735Z,99923.38
2023-11-24T19:43:16.857Z,99917.92
2023-11-24T19:45:46.070Z,99916.98
2023-11-24T19:48:15.741Z,99917.56
2023-11-24T19:50:44.015Z,99925.02
2023-11-24T19:53:13.631Z,99933.67
2023-11-24T19:55:41.905Z,99936.45
2023-11-24T19:58:10.810Z,99940.97
2023-11-24T20:00:40.044Z,99944.30
2023-11-24T20:03:08.506Z,99949.14
2023-11-24T20:05:37.190Z,99950.13
2023-11-24T20:08:06.267Z,99952.31
2023-11-24T20:10:34.685Z,99954.17
2023-11-24T20:13:04.937Z,99956.07
2023-11-24T20:15:33.745Z,99956.34
2023-11-24T20:18:03.937Z,99957.79
2023-11-24T20:20:32.451Z,99953.77
2023-11-24T20:23:00.732Z,99950.74
2023-11-24T20:25:32.338Z,99948.44
2023-11-24T20:28:01.775Z,99947.55
2023-11-24T20:30:30.367Z,99947.40
2023-11-24T20:32:58.672Z,99945.33
2023-11-24T20:35:27.435Z,99936.11
2023-11-24T20:37:55.711Z,99933.61
2023-11-24T20:40:26.124Z,99926.80
2023-11-24T20:42:54.644Z,99926.33
2023-11-24T20:45:23.014Z,99932.31
2023-11-24T20:47:51.503Z,99935.55
2023-11-24T20:50:20.218Z,99939.04
2023-11-24T20:52:49.979Z,99938.42
2023-11-24T20:55:18.843Z,99938.89
2023-11-24T20:57:48.098Z,99941.65
2023-11-24T21:00:19.828Z,99945.34
2023-11-24T21:02:49.412Z,99950.63
2023-11-24T21:05:18.113Z,99950.88
2023-11-24T21:07:46.408Z,99952.48
2023-11-24T21:10:15.728Z,99949.73
2023-11-24T21:12:44.384Z,99950.38
2023-11-24T21:15:15.958Z,99952.59
2023-11-24T21:17:44.787Z,99957.16
2023-11-24T21:20:15.405Z,99962.91
2023-11-24T21:22:43.712Z,99959.89
2023-11-24T21:25:13.353Z,99961.84
2023-11-24T21:27:41.818Z,99955.02
2023-11-24T21:30:10.818Z,99955.64
2023-11-24T21:32:39.364Z,99957.52
2023-11-24T21:35:09.008Z,99953.55
2023-11-24T21:37:37.395Z,99951.02
2023-11-24T21:40:08.070Z,99951.67
2023-11-24T21:42:36.914Z,99947.27
2023-11-24T21:45:06.094Z,99943.56
2023-11-24T21:47:34.844Z,99938.85
2023-11-24T21:50:04.778Z,99934.52
2023-11-24T21:52:34.220Z,99931.06
2023-11-24T21:55:05.449Z,99933.81
2023-11-24T21:57:34.553Z,99929.00
2023-11-24T22:00:06.410Z,99925.63
2023-11-24T22:02:40.850Z,99921.48
2023-11-24T22:05:12.693Z,99916.59
2023-11-24T22:07:42.335Z,99911.15
2023-11-24T22:10:11.139Z,99907.06
2023-11-24T22:12:39.690Z,99901.33
2023-11-24T22:15:09.495Z,99896.42
2023-11-24T22:17:38.316Z,99892.10
2023-11-24T22:20:12.096Z,99886.23
2023-11-24T22:22:41.179Z,99881.48
2023-11-24T22:25:10.268Z,99878.50
2023-11-24T22:27:38.672Z,99872.10
2023-11-24T22:30:08.205Z,99865.29
2023-11-24T22:32:37.057Z,99856.81
2023-11-24T22:35:08.167Z,99850.64
2023-11-24T22:37:36.621Z,99839.70
2023-11-24T22:40:08.375Z,99834.25
2023-11-24T22:42:36.911Z,99828.48
2023-11-24T22:45:07.745Z,99825.05
2023-11-24T22:47:39.566Z,99825.86
2023-11-24T22:50:08.562Z,99827.65
2023-11-24T22:52:37.711Z,99825.27
2023-11-24T22:55:07.115Z,99817.59
2023-11-24T22:57:35.787Z,99821.20
2023-11-24T23:00:07.352Z,99826.43
2023-11-24T23:02:36.009Z,99826.11
2023-11-24T23:05:05.901Z,99833.09
2023-11-24T23:07:34.339Z,99841.77
2023-11-24T23:10:05.795Z,99844.60
2023-11-24T23:12:34.459Z,99843.23
2023-11-24T23:15:02.733Z,99847.85
2023-11-24T23:17:31.015Z,99849.16
2023-11-24T23:19:59.491Z,99847.79
2023-11-24T23:22:34.965Z,99843.66
2023-11-24T23:25:07.824Z,99844.33
2023-11-24T23:27:37.018Z,99843.27
2023-11-24T23:30:08.662Z,99846.80
2023-11-24T23:32:37.231Z,99846.00
2023-11-24T23:35:08.842Z,99845.21
2023-11-24T23:37:37.255Z,99846.43
2023-11-24T23:40:15.274Z,99846.25
2023-11-24T23:42:45.933Z,99843.61
2023-11-24T23:45:15.517Z,99841.15
2023-11-24T23:47:44.290Z,99842.39
2023-11-24T23:50:14.115Z,99838.98
2023-11-24T23:52:43.542Z,99836.59
2023-11-24T23:55:14.427Z,99833.77
2023-11-24T23:57:43.267Z,99831.60
